sensor_id;sensor_type;location;lat;lon;timestamp;P1;durP1;ratioP1;P2;durP2;ratioP2
76127;SDS011;64873;50.102;14.434;2023-02-03T00:00:41;5.68;;;2.72;;
76127;SDS011;64873;50.102;14.434;2023-02-03T00:03:07;7.00;;;2.20;;
76127;SDS011;64873;50.102;14.434;2023-02-03T00:05:33;9.50;;;2.45;;
76127;SDS011;64873;50.102;14.434;2023-02-03T00:08:01;9.43;;;2.63;;
76127;SDS011;64873;50.102;14.434;2023-02-03T00:10:28;10.00;;;2.55;;
76127;SDS011;64873;50.102;14.434;2023-02-03T00:12:54;8.95;;;2.53;;
76127;SDS011;64873;50.102;14.434;2023-02-03T00:15:21;7.53;;;2.70;;
76127;SDS011;64873;50.102;14.434;2023-02-03T00:17:47;10.73;;;2.90;;
76127;SDS011;64873;50.102;14.434;2023-02-03T00:20:13;10.25;;;2.92;;
76127;SDS011;64873;50.102;14.434;2023-02-03T00:22:39;10.70;;;2.67;;
76127;SDS011;64873;50.102;14.434;2023-02-03T00:25:05;9.60;;;2.63;;
76127;SDS011;64873;50.102;14.434;2023-02-03T00:27:31;11.00;;;2.83;;
76127;SDS011;64873;50.102;14.434;2023-02-03T00:29:58;5.78;;;1.90;;
76127;SDS011;64873;50.102;14.434;2023-02-03T00:32:24;8.82;;;1.88;;
76127;SDS011;64873;50.102;14.434;2023-02-03T00:34:50;9.02;;;2.20;;
76127;SDS011;64873;50.102;14.434;2023-02-03T00:37:16;6.55;;;1.73;;
76127;SDS011;64873;50.102;14.434;2023-02-03T00:39:42;5.68;;;2.00;;
76127;SDS011;64873;50.102;14.434;2023-02-03T00:42:07;7.03;;;2.22;;
76127;SDS011;64873;50.102;14.434;2023-02-03T00:44:34;10.98;;;2.88;;
76127;SDS011;64873;50.102;14.434;2023-02-03T00:46:59;9.93;;;2.72;;
76127;SDS011;64873;50.102;14.434;2023-02-03T00:49:25;7.63;;;2.10;;
76127;SDS011;64873;50.102;14.434;2023-02-03T00:51:51;7.70;;;2.20;;
76127;SDS011;64873;50.102;14.434;2023-02-03T00:54:17;11.90;;;3.15;;
76127;SDS011;64873;50.102;14.434;2023-02-03T00:56:43;11.65;;;2.45;;
76127;SDS011;64873;50.102;14.434;2023-02-03T00:59:09;7.88;;;2.30;;
76127;SDS011;64873;50.102;14.434;2023-02-03T01:01:35;9.07;;;3.40;;
76127;SDS011;64873;50.102;14.434;2023-02-03T01:04:01;11.50;;;2.92;;
76127;SDS011;64873;50.102;14.434;2023-02-03T01:06:27;11.82;;;3.25;;
76127;SDS011;64873;50.102;14.434;2023-02-03T01:08:53;8.73;;;2.70;;
76127;SDS011;64873;50.102;14.434;2023-02-03T01:11:21;8.40;;;2.90;;
76127;SDS011;64873;50.102;14.434;2023-02-03T01:13:48;9.90;;;3.03;;
76127;SDS011;64873;50.102;14.434;2023-02-03T01:16:16;8.38;;;2.90;;
76127;SDS011;64873;50.102;14.434;2023-02-03T01:18:44;13.65;;;3.42;;
76127;SDS011;64873;50.102;14.434;2023-02-03T01:21:18;8.95;;;2.97;;
76127;SDS011;64873;50.102;14.434;2023-02-03T01:23:48;5.68;;;2.83;;
76127;SDS011;64873;50.102;14.434;2023-02-03T01:26:14;8.57;;;3.63;;
76127;SDS011;64873;50.102;14.434;2023-02-03T01:28:42;12.13;;;3.45;;
76127;SDS011;64873;50.102;14.434;2023-02-03T01:31:16;7.88;;;3.53;;
76127;SDS011;64873;50.102;14.434;2023-02-03T01:33:43;9.45;;;3.25;;
76127;SDS011;64873;50.102;14.434;2023-02-03T01:36:13;9.27;;;3.50;;
76127;SDS011;64873;50.102;14.434;2023-02-03T01:38:41;8.45;;;3.30;;
76127;SDS011;64873;50.102;14.434;2023-02-03T01:41:08;7.15;;;2.85;;
76127;SDS011;64873;50.102;14.434;2023-02-03T01:43:40;8.10;;;3.55;;
76127;SDS011;64873;50.102;14.434;2023-02-03T01:46:27;5.75;;;2.85;;
76127;SDS011;64873;50.102;14.434;2023-02-03T01:49:06;6.45;;;2.80;;
76127;SDS011;64873;50.102;14.434;2023-02-03T01:51:39;7.03;;;3.10;;
76127;SDS011;64873;50.102;14.434;2023-02-03T01:54:10;9.15;;;3.08;;
76127;SDS011;64873;50.102;14.434;2023-02-03T01:56:40;7.22;;;2.88;;
76127;SDS011;64873;50.102;14.434;2023-02-03T01:59:08;7.85;;;3.15;;
76127;SDS011;64873;50.102;14.434;2023-02-03T02:01:34;8.05;;;3.33;;
76127;SDS011;64873;50.102;14.434;2023-02-03T02:04:01;12.88;;;3.95;;
76127;SDS011;64873;50.102;14.434;2023-02-03T02:06:28;11.00;;;4.03;;
76127;SDS011;64873;50.102;14.434;2023-02-03T02:08:54;9.80;;;3.75;;
76127;SDS011;64873;50.102;14.434;2023-02-03T02:11:24;9.93;;;3.50;;
76127;SDS011;64873;50.102;14.434;2023-02-03T02:13:51;10.73;;;3.80;;
76127;SDS011;64873;50.102;14.434;2023-02-03T02:16:21;7.35;;;3.58;;
76127;SDS011;64873;50.102;14.434;2023-02-03T02:24:48;7.35;;;3.78;;
76127;SDS011;64873;50.102;14.434;2023-02-03T02:39:00;13.27;;;5.05;;
76127;SDS011;64873;50.102;14.434;2023-02-03T02:44:40;8.52;;;4.63;;
76127;SDS011;64873;50.102;14.434;2023-02-03T02:47:21;8.10;;;4.65;;
76127;SDS011;64873;50.102;14.434;2023-02-03T02:52:33;9.85;;;4.82;;
76127;SDS011;64873;50.102;14.434;2023-02-03T02:55:24;8.60;;;4.90;;
76127;SDS011;64873;50.102;14.434;2023-02-03T02:57:55;10.90;;;4.80;;
76127;SDS011;64873;50.102;14.434;2023-02-03T03:00:28;8.20;;;4.75;;
76127;SDS011;64873;50.102;14.434;2023-02-03T03:02:56;7.07;;;4.68;;
76127;SDS011;64873;50.102;14.434;2023-02-03T03:05:22;7.63;;;4.63;;
76127;SDS011;64873;50.102;14.434;2023-02-03T03:07:52;8.07;;;4.72;;
76127;SDS011;64873;50.102;14.434;2023-02-03T03:10:26;6.95;;;3.90;;
76127;SDS011;64873;50.102;14.434;2023-02-03T03:12:56;7.95;;;4.28;;
76127;SDS011;64873;50.102;14.434;2023-02-03T03:15:27;7.60;;;4.50;;
76127;SDS011;64873;50.102;14.434;2023-02-03T03:20:30;7.00;;;3.75;;
76127;SDS011;64873;50.102;14.434;2023-02-03T03:23:08;6.82;;;3.95;;
76127;SDS011;64873;50.102;14.434;2023-02-03T03:25:40;6.78;;;3.42;;
76127;SDS011;64873;50.102;14.434;2023-02-03T03:28:18;4.30;;;3.15;;
76127;SDS011;64873;50.102;14.434;2023-02-03T03:30:55;6.65;;;3.20;;
76127;SDS011;64873;50.102;14.434;2023-02-03T03:33:21;5.82;;;3.58;;
76127;SDS011;64873;50.102;14.434;2023-02-03T03:38:20;7.53;;;3.50;;
76127;SDS011;64873;50.102;14.434;2023-02-03T03:41:11;5.53;;;3.40;;
76127;SDS011;64873;50.102;14.434;2023-02-03T03:43:44;7.03;;;4.10;;
76127;SDS011;64873;50.102;14.434;2023-02-03T03:46:13;5.32;;;3.53;;
76127;SDS011;64873;50.102;14.434;2023-02-03T03:48:49;6.43;;;3.63;;
76127;SDS011;64873;50.102;14.434;2023-02-03T03:51:22;5.70;;;3.58;;
76127;SDS011;64873;50.102;14.434;2023-02-03T03:53:52;4.82;;;3.47;;
76127;SDS011;64873;50.102;14.434;2023-02-03T03:56:29;6.20;;;3.30;;
76127;SDS011;64873;50.102;14.434;2023-02-03T03:59:01;5.65;;;3.33;;
76127;SDS011;64873;50.102;14.434;2023-02-03T04:01:28;5.97;;;3.35;;
76127;SDS011;64873;50.102;14.434;2023-02-03T04:03:59;5.95;;;3.85;;
76127;SDS011;64873;50.102;14.434;2023-02-03T04:06:29;8.20;;;3.33;;
76127;SDS011;64873;50.102;14.434;2023-02-03T04:08:55;6.68;;;3.05;;
76127;SDS011;64873;50.102;14.434;2023-02-03T04:11:22;4.40;;;2.88;;
76127;SDS011;64873;50.102;14.434;2023-02-03T04:14:06;9.13;;;3.60;;
76127;SDS011;64873;50.102;14.434;2023-02-03T04:16:32;4.35;;;3.00;;
76127;SDS011;64873;50.102;14.434;2023-02-03T04:18:58;6.85;;;2.80;;
76127;SDS011;64873;50.102;14.434;2023-02-03T04:21:24;5.25;;;3.08;;
76127;SDS011;64873;50.102;14.434;2023-02-03T04:23:49;6.25;;;3.63;;
76127;SDS011;64873;50.102;14.434;2023-02-03T04:26:21;3.35;;;2.45;;
76127;SDS011;64873;50.102;14.434;2023-02-03T04:28:47;4.70;;;2.80;;
76127;SDS011;64873;50.102;14.434;2023-02-03T04:31:12;4.75;;;2.58;;
76127;SDS011;64873;50.102;14.434;2023-02-03T04:33:39;3.33;;;2.08;;
76127;SDS011;64873;50.102;14.434;2023-02-03T04:36:04;4.25;;;2.80;;
76127;SDS011;64873;50.102;14.434;2023-02-03T04:38:32;3.08;;;2.40;;
76127;SDS011;64873;50.102;14.434;2023-02-03T04:40:58;6.00;;;2.78;;
76127;SDS011;64873;50.102;14.434;2023-02-03T04:43:27;3.75;;;2.63;;
76127;SDS011;64873;50.102;14.434;2023-02-03T04:45:53;6.03;;;3.30;;
76127;SDS011;64873;50.102;14.434;2023-02-03T04:48:19;4.32;;;2.90;;
76127;SDS011;64873;50.102;14.434;2023-02-03T04:50:44;5.32;;;2.65;;
76127;SDS011;64873;50.102;14.434;2023-02-03T04:53:10;4.95;;;2.40;;
76127;SDS011;64873;50.102;14.434;2023-02-03T04:55:36;4.03;;;2.50;;
76127;SDS011;64873;50.102;14.434;2023-02-03T04:58:01;3.55;;;2.25;;
76127;SDS011;64873;50.102;14.434;2023-02-03T05:00:27;4.13;;;2.45;;
76127;SDS011;64873;50.102;14.434;2023-02-03T05:02:53;5.15;;;2.40;;
76127;SDS011;64873;50.102;14.434;2023-02-03T05:05:19;4.53;;;2.78;;
76127;SDS011;64873;50.102;14.434;2023-02-03T05:07:45;3.35;;;2.28;;
76127;SDS011;64873;50.102;14.434;2023-02-03T05:10:11;6.97;;;2.50;;
76127;SDS011;64873;50.102;14.434;2023-02-03T05:12:37;2.88;;;1.90;;
76127;SDS011;64873;50.102;14.434;2023-02-03T05:15:04;2.88;;;1.92;;
76127;SDS011;64873;50.102;14.434;2023-02-03T05:17:30;4.80;;;1.90;;
76127;SDS011;64873;50.102;14.434;2023-02-03T05:22:28;3.83;;;1.80;;
76127;SDS011;64873;50.102;14.434;2023-02-03T05:24:54;5.05;;;1.80;;
76127;SDS011;64873;50.102;14.434;2023-02-03T05:27:20;3.17;;;1.95;;
76127;SDS011;64873;50.102;14.434;2023-02-03T05:29:45;5.32;;;1.50;;
76127;SDS011;64873;50.102;14.434;2023-02-03T05:32:11;9.07;;;1.70;;
76127;SDS011;64873;50.102;14.434;2023-02-03T05:34:37;2.20;;;1.50;;
76127;SDS011;64873;50.102;14.434;2023-02-03T05:37:02;4.65;;;1.70;;
76127;SDS011;64873;50.102;14.434;2023-02-03T05:39:28;3.88;;;1.67;;
76127;SDS011;64873;50.102;14.434;2023-02-03T05:41:54;2.20;;;1.20;;
76127;SDS011;64873;50.102;14.434;2023-02-03T05:44:20;3.60;;;1.17;;
76127;SDS011;64873;50.102;14.434;2023-02-03T05:46:47;1.20;;;0.90;;
76127;SDS011;64873;50.102;14.434;2023-02-03T05:49:13;1.85;;;1.10;;
76127;SDS011;64873;50.102;14.434;2023-02-03T05:51:39;2.35;;;1.20;;
76127;SDS011;64873;50.102;14.434;2023-02-03T05:54:05;2.00;;;1.10;;
76127;SDS011;64873;50.102;14.434;2023-02-03T05:56:31;2.80;;;1.60;;
76127;SDS011;64873;50.102;14.434;2023-02-03T05:58:58;2.80;;;1.20;;
76127;SDS011;64873;50.102;14.434;2023-02-03T06:01:24;3.30;;;1.60;;
76127;SDS011;64873;50.102;14.434;2023-02-03T06:03:50;2.10;;;1.30;;
76127;SDS011;64873;50.102;14.434;2023-02-03T06:06:16;3.42;;;1.75;;
76127;SDS011;64873;50.102;14.434;2023-02-03T06:08:42;2.47;;;1.25;;
76127;SDS011;64873;50.102;14.434;2023-02-03T06:11:08;3.15;;;1.80;;
76127;SDS011;64873;50.102;14.434;2023-02-03T06:13:35;3.78;;;1.50;;
76127;SDS011;64873;50.102;14.434;2023-02-03T06:16:01;4.57;;;1.90;;
76127;SDS011;64873;50.102;14.434;2023-02-03T06:18:27;3.92;;;1.63;;
76127;SDS011;64873;50.102;14.434;2023-02-03T06:20:53;2.88;;;2.00;;
76127;SDS011;64873;50.102;14.434;2023-02-03T06:23:19;4.05;;;1.88;;
76127;SDS011;64873;50.102;14.434;2023-02-03T06:25:48;3.22;;;1.70;;
76127;SDS011;64873;50.102;14.434;2023-02-03T06:28:17;3.15;;;1.40;;
76127;SDS011;64873;50.102;14.434;2023-02-03T06:30:49;2.63;;;1.92;;
76127;SDS011;64873;50.102;14.434;2023-02-03T06:33:15;2.65;;;1.50;;
76127;SDS011;64873;50.102;14.434;2023-02-03T06:35:41;2.40;;;1.77;;
76127;SDS011;64873;50.102;14.434;2023-02-03T06:38:07;3.85;;;2.53;;
76127;SDS011;64873;50.102;14.434;2023-02-03T06:40:32;3.63;;;1.60;;
76127;SDS011;64873;50.102;14.434;2023-02-03T06:42:57;6.05;;;2.38;;
76127;SDS011;64873;50.102;14.434;2023-02-03T06:45:23;3.38;;;2.05;;
76127;SDS011;64873;50.102;14.434;2023-02-03T06:47:48;3.60;;;1.55;;
76127;SDS011;64873;50.102;14.434;2023-02-03T06:50:14;2.30;;;1.80;;
76127;SDS011;64873;50.102;14.434;2023-02-03T06:52:40;3.67;;;1.70;;
76127;SDS011;64873;50.102;14.434;2023-02-03T06:55:06;3.28;;;2.20;;
76127;SDS011;64873;50.102;14.434;2023-02-03T06:57:32;2.53;;;1.58;;
76127;SDS011;64873;50.102;14.434;2023-02-03T06:59:57;4.00;;;2.58;;
76127;SDS011;64873;50.102;14.434;2023-02-03T07:02:22;3.08;;;1.80;;
76127;SDS011;64873;50.102;14.434;2023-02-03T07:04:48;4.70;;;1.90;;
76127;SDS011;64873;50.102;14.434;2023-02-03T07:07:13;4.82;;;3.15;;
76127;SDS011;64873;50.102;14.434;2023-02-03T07:09:39;5.05;;;2.30;;
76127;SDS011;64873;50.102;14.434;2023-02-03T07:12:05;6.20;;;2.28;;
76127;SDS011;64873;50.102;14.434;2023-02-03T07:14:32;4.13;;;2.38;;
76127;SDS011;64873;50.102;14.434;2023-02-03T07:17:00;3.95;;;2.28;;
76127;SDS011;64873;50.102;14.434;2023-02-03T07:19:26;4.82;;;2.35;;
76127;SDS011;64873;50.102;14.434;2023-02-03T07:21:51;5.05;;;2.30;;
76127;SDS011;64873;50.102;14.434;2023-02-03T07:24:17;3.58;;;2.00;;
76127;SDS011;64873;50.102;14.434;2023-02-03T07:26:42;4.65;;;2.40;;
76127;SDS011;64873;50.102;14.434;2023-02-03T07:29:07;4.53;;;2.75;;
76127;SDS011;64873;50.102;14.434;2023-02-03T07:31:33;4.43;;;2.65;;
76127;SDS011;64873;50.102;14.434;2023-02-03T07:33:59;3.05;;;2.17;;
76127;SDS011;64873;50.102;14.434;2023-02-03T07:36:25;4.50;;;2.90;;
76127;SDS011;64873;50.102;14.434;2023-02-03T07:38:52;5.32;;;3.08;;
76127;SDS011;64873;50.102;14.434;2023-02-03T07:41:18;4.93;;;2.67;;
76127;SDS011;64873;50.102;14.434;2023-02-03T07:43:43;5.88;;;2.83;;
76127;SDS011;64873;50.102;14.434;2023-02-03T07:46:09;4.07;;;2.67;;
76127;SDS011;64873;50.102;14.434;2023-02-03T07:48:34;5.43;;;2.83;;
76127;SDS011;64873;50.102;14.434;2023-02-03T07:51:00;4.85;;;2.92;;
76127;SDS011;64873;50.102;14.434;2023-02-03T07:53:25;9.18;;;3.00;;
76127;SDS011;64873;50.102;14.434;2023-02-03T07:55:50;5.55;;;2.92;;
76127;SDS011;64873;50.102;14.434;2023-02-03T07:58:16;4.55;;;2.85;;
76127;SDS011;64873;50.102;14.434;2023-02-03T08:00:42;5.00;;;2.78;;
76127;SDS011;64873;50.102;14.434;2023-02-03T08:03:07;5.93;;;3.25;;
76127;SDS011;64873;50.102;14.434;2023-02-03T08:05:33;5.50;;;2.70;;
76127;SDS011;64873;50.102;14.434;2023-02-03T08:07:58;6.55;;;3.28;;
76127;SDS011;64873;50.102;14.434;2023-02-03T08:10:23;9.52;;;2.83;;
76127;SDS011;64873;50.102;14.434;2023-02-03T08:12:51;4.70;;;2.85;;
76127;SDS011;64873;50.102;14.434;2023-02-03T08:15:20;5.90;;;2.30;;
76127;SDS011;64873;50.102;14.434;2023-02-03T08:17:47;6.68;;;2.45;;
76127;SDS011;64873;50.102;14.434;2023-02-03T08:20:13;3.85;;;2.25;;
76127;SDS011;64873;50.102;14.434;2023-02-03T08:22:40;5.80;;;3.45;;
76127;SDS011;64873;50.102;14.434;2023-02-03T08:25:06;4.13;;;2.63;;
76127;SDS011;64873;50.102;14.434;2023-02-03T08:27:31;4.05;;;2.55;;
76127;SDS011;64873;50.102;14.434;2023-02-03T08:29:57;6.18;;;2.83;;
76127;SDS011;64873;50.102;14.434;2023-02-03T08:32:23;5.47;;;2.65;;
76127;SDS011;64873;50.102;14.434;2023-02-03T08:34:49;4.07;;;2.30;;
76127;SDS011;64873;50.102;14.434;2023-02-03T08:37:16;3.58;;;2.20;;
76127;SDS011;64873;50.102;14.434;2023-02-03T08:39:43;3.95;;;2.30;;
76127;SDS011;64873;50.102;14.434;2023-02-03T08:42:08;4.20;;;2.17;;
76127;SDS011;64873;50.102;14.434;2023-02-03T08:44:34;4.38;;;2.50;;
76127;SDS011;64873;50.102;14.434;2023-02-03T08:47:00;5.72;;;2.60;;
76127;SDS011;64873;50.102;14.434;2023-02-03T08:49:27;5.40;;;2.50;;
76127;SDS011;64873;50.102;14.434;2023-02-03T08:51:54;3.72;;;2.35;;
76127;SDS011;64873;50.102;14.434;2023-02-03T08:54:20;5.22;;;2.30;;
76127;SDS011;64873;50.102;14.434;2023-02-03T08:56:46;5.05;;;2.50;;
76127;SDS011;64873;50.102;14.434;2023-02-03T08:59:12;7.85;;;2.50;;
76127;SDS011;64873;50.102;14.434;2023-02-03T09:01:38;4.57;;;2.38;;
76127;SDS011;64873;50.102;14.434;2023-02-03T09:04:09;3.40;;;1.90;;
76127;SDS011;64873;50.102;14.434;2023-02-03T09:06:35;2.92;;;1.85;;
76127;SDS011;64873;50.102;14.434;2023-02-03T09:09:01;8.95;;;2.28;;
76127;SDS011;64873;50.102;14.434;2023-02-03T09:11:27;5.32;;;1.83;;
76127;SDS011;64873;50.102;14.434;2023-02-03T09:13:53;2.85;;;2.00;;
76127;SDS011;64873;50.102;14.434;2023-02-03T09:16:20;2.95;;;1.75;;
76127;SDS011;64873;50.102;14.434;2023-02-03T09:18:46;4.28;;;2.28;;
76127;SDS011;64873;50.102;14.434;2023-02-03T09:21:13;3.53;;;2.10;;
76127;SDS011;64873;50.102;14.434;2023-02-03T09:23:40;6.82;;;3.28;;
76127;SDS011;64873;50.102;14.434;2023-02-03T09:26:07;3.10;;;1.90;;
76127;SDS011;64873;50.102;14.434;2023-02-03T09:28:35;3.38;;;1.95;;
76127;SDS011;64873;50.102;14.434;2023-02-03T09:31:01;3.38;;;2.08;;
76127;SDS011;64873;50.102;14.434;2023-02-03T09:33:31;4.82;;;2.05;;
76127;SDS011;64873;50.102;14.434;2023-02-03T09:35:56;3.20;;;1.92;;
76127;SDS011;64873;50.102;14.434;2023-02-03T09:38:23;4.28;;;1.67;;
76127;SDS011;64873;50.102;14.434;2023-02-03T09:40:51;5.43;;;1.95;;
76127;SDS011;64873;50.102;14.434;2023-02-03T09:43:30;5.28;;;1.80;;
76127;SDS011;64873;50.102;14.434;2023-02-03T09:46:06;4.10;;;1.60;;
76127;SDS011;64873;50.102;14.434;2023-02-03T09:48:38;2.67;;;1.83;;
76127;SDS011;64873;50.102;14.434;2023-02-03T09:51:16;4.00;;;2.47;;
76127;SDS011;64873;50.102;14.434;2023-02-03T09:53:51;5.00;;;2.25;;
76127;SDS011;64873;50.102;14.434;2023-02-03T09:56:34;2.63;;;1.73;;
76127;SDS011;64873;50.102;14.434;2023-02-03T09:59:01;3.85;;;1.80;;
76127;SDS011;64873;50.102;14.434;2023-02-03T10:01:29;5.50;;;1.67;;
76127;SDS011;64873;50.102;14.434;2023-02-03T10:06:52;4.85;;;1.50;;
76127;SDS011;64873;50.102;14.434;2023-02-03T10:18:15;6.13;;;1.70;;
76127;SDS011;64873;50.102;14.434;2023-02-03T10:20:46;4.63;;;1.75;;
76127;SDS011;64873;50.102;14.434;2023-02-03T10:23:23;3.08;;;1.35;;
76127;SDS011;64873;50.102;14.434;2023-02-03T10:25:54;5.90;;;1.50;;
76127;SDS011;64873;50.102;14.434;2023-02-03T10:28:26;3.30;;;1.40;;
76127;SDS011;64873;50.102;14.434;2023-02-03T10:30:57;5.07;;;1.55;;
76127;SDS011;64873;50.102;14.434;2023-02-03T10:33:24;3.42;;;1.30;;
76127;SDS011;64873;50.102;14.434;2023-02-03T10:41:14;2.05;;;1.20;;
76127;SDS011;64873;50.102;14.434;2023-02-03T10:43:42;2.47;;;1.48;;
76127;SDS011;64873;50.102;14.434;2023-02-03T10:46:26;4.82;;;1.55;;
76127;SDS011;64873;50.102;14.434;2023-02-03T10:48:54;3.45;;;1.40;;
76127;SDS011;64873;50.102;14.434;2023-02-03T10:51:24;1.95;;;1.20;;
76127;SDS011;64873;50.102;14.434;2023-02-03T10:53:51;2.25;;;1.38;;
76127;SDS011;64873;50.102;14.434;2023-02-03T10:56:36;4.22;;;1.30;;
76127;SDS011;64873;50.102;14.434;2023-02-03T10:59:03;2.42;;;1.20;;
76127;SDS011;64873;50.102;14.434;2023-02-03T11:01:37;4.82;;;1.77;;
76127;SDS011;64873;50.102;14.434;2023-02-03T11:04:06;3.63;;;1.50;;
76127;SDS011;64873;50.102;14.434;2023-02-03T11:06:56;2.22;;;1.15;;
76127;SDS011;64873;50.102;14.434;2023-02-03T11:09:30;3.72;;;1.52;;
76127;SDS011;64873;50.102;14.434;2023-02-03T11:14:41;3.05;;;1.10;;
76127;SDS011;64873;50.102;14.434;2023-02-03T11:17:18;4.03;;;1.40;;
76127;SDS011;64873;50.102;14.434;2023-02-03T11:19:54;2.03;;;0.77;;
76127;SDS011;64873;50.102;14.434;2023-02-03T11:24:52;3.15;;;0.88;;
76127;SDS011;64873;50.102;14.434;2023-02-03T11:27:18;3.30;;;1.27;;
76127;SDS011;64873;50.102;14.434;2023-02-03T11:29:47;2.22;;;1.20;;
76127;SDS011;64873;50.102;14.434;2023-02-03T11:32:28;1.38;;;0.90;;
76127;SDS011;64873;50.102;14.434;2023-02-03T11:37:51;1.85;;;1.23;;
76127;SDS011;64873;50.102;14.434;2023-02-03T11:47:53;2.47;;;1.10;;
76127;SDS011;64873;50.102;14.434;2023-02-03T11:53:04;3.83;;;1.70;;
76127;SDS011;64873;50.102;14.434;2023-02-03T12:04:05;2.28;;;1.20;;
76127;SDS011;64873;50.102;14.434;2023-02-03T12:10:08;3.35;;;1.27;;
76127;SDS011;64873;50.102;14.434;2023-02-03T12:17:33;1.73;;;1.10;;
76127;SDS011;64873;50.102;14.434;2023-02-03T12:20:48;3.33;;;1.60;;
76127;SDS011;64873;50.102;14.434;2023-02-03T12:29:03;2.10;;;0.93;;
76127;SDS011;64873;50.102;14.434;2023-02-03T12:31:42;2.10;;;0.98;;
76127;SDS011;64873;50.102;14.434;2023-02-03T12:36:39;2.17;;;1.08;;
76127;SDS011;64873;50.102;14.434;2023-02-03T12:39:17;2.55;;;1.00;;
76127;SDS011;64873;50.102;14.434;2023-02-03T12:42:11;4.78;;;1.00;;
76127;SDS011;64873;50.102;14.434;2023-02-03T12:49:44;1.55;;;0.80;;
76127;SDS011;64873;50.102;14.434;2023-02-03T12:52:31;2.10;;;1.00;;
76127;SDS011;64873;50.102;14.434;2023-02-03T12:55:20;1.58;;;0.80;;
76127;SDS011;64873;50.102;14.434;2023-02-03T12:57:54;1.70;;;0.95;;
76127;SDS011;64873;50.102;14.434;2023-02-03T13:08:34;1.85;;;0.90;;
76127;SDS011;64873;50.102;14.434;2023-02-03T13:14:02;1.30;;;0.70;;
76127;SDS011;64873;50.102;14.434;2023-02-03T13:16:38;1.63;;;1.00;;
76127;SDS011;64873;50.102;14.434;2023-02-03T13:21:39;1.55;;;0.80;;
76127;SDS011;64873;50.102;14.434;2023-02-03T13:24:06;1.92;;;0.73;;
76127;SDS011;64873;50.102;14.434;2023-02-03T13:29:04;2.53;;;0.80;;
76127;SDS011;64873;50.102;14.434;2023-02-03T13:39:52;1.35;;;0.63;;
76127;SDS011;64873;50.102;14.434;2023-02-03T13:42:34;1.05;;;0.60;;
76127;SDS011;64873;50.102;14.434;2023-02-03T13:47:50;1.38;;;0.82;;
76127;SDS011;64873;50.102;14.434;2023-02-03T13:50:23;1.50;;;0.68;;
76127;SDS011;64873;50.102;14.434;2023-02-03T13:55:41;1.15;;;0.60;;
76127;SDS011;64873;50.102;14.434;2023-02-03T13:58:23;0.88;;;0.60;;
76127;SDS011;64873;50.102;14.434;2023-02-03T14:05:50;1.93;;;0.63;;
76127;SDS011;64873;50.102;14.434;2023-02-03T14:16:49;1.67;;;0.70;;
76127;SDS011;64873;50.102;14.434;2023-02-03T14:24:18;3.25;;;0.80;;
76127;SDS011;64873;50.102;14.434;2023-02-03T14:26:45;1.75;;;0.70;;
76127;SDS011;64873;50.102;14.434;2023-02-03T14:29:31;1.02;;;0.57;;
76127;SDS011;64873;50.102;14.434;2023-02-03T14:32:02;0.90;;;0.50;;
76127;SDS011;64873;50.102;14.434;2023-02-03T14:37:17;2.42;;;0.75;;
76127;SDS011;64873;50.102;14.434;2023-02-03T14:40:06;1.40;;;0.80;;
76127;SDS011;64873;50.102;14.434;2023-02-03T14:56:47;1.35;;;0.60;;
76127;SDS011;64873;50.102;14.434;2023-02-03T15:02:12;1.70;;;1.35;;
76127;SDS011;64873;50.102;14.434;2023-02-03T15:04:43;1.85;;;0.75;;
76127;SDS011;64873;50.102;14.434;2023-02-03T15:07:32;0.82;;;0.52;;
76127;SDS011;64873;50.102;14.434;2023-02-03T15:10:13;0.60;;;0.30;;
76127;SDS011;64873;50.102;14.434;2023-02-03T15:12:46;0.80;;;0.43;;
76127;SDS011;64873;50.102;14.434;2023-02-03T15:15:18;2.70;;;0.80;;
76127;SDS011;64873;50.102;14.434;2023-02-03T15:17:54;2.10;;;0.68;;
76127;SDS011;64873;50.102;14.434;2023-02-03T15:22:53;6.90;;;2.07;;
76127;SDS011;64873;50.102;14.434;2023-02-03T15:25:20;3.05;;;0.90;;
76127;SDS011;64873;50.102;14.434;2023-02-03T15:27:49;19.23;;;4.40;;
76127;SDS011;64873;50.102;14.434;2023-02-03T15:30:22;2.55;;;1.10;;
76127;SDS011;64873;50.102;14.434;2023-02-03T15:32:57;1.88;;;0.77;;
76127;SDS011;64873;50.102;14.434;2023-02-03T15:35:37;4.25;;;0.80;;
76127;SDS011;64873;50.102;14.434;2023-02-03T15:38:11;0.65;;;0.50;;
76127;SDS011;64873;50.102;14.434;2023-02-03T15:40:43;2.13;;;0.75;;
76127;SDS011;64873;50.102;14.434;2023-02-03T15:45:46;5.68;;;1.33;;
76127;SDS011;64873;50.102;14.434;2023-02-03T15:48:48;9.57;;;2.65;;
76127;SDS011;64873;50.102;14.434;2023-02-03T15:51:21;2.30;;;0.90;;
76127;SDS011;64873;50.102;14.434;2023-02-03T15:53:57;6.05;;;1.10;;
76127;SDS011;64873;50.102;14.434;2023-02-03T15:56:31;8.80;;;1.45;;
76127;SDS011;64873;50.102;14.434;2023-02-03T15:59:01;6.88;;;1.45;;
76127;SDS011;64873;50.102;14.434;2023-02-03T16:01:28;3.50;;;0.82;;
76127;SDS011;64873;50.102;14.434;2023-02-03T16:03:54;3.97;;;1.30;;
76127;SDS011;64873;50.102;14.434;2023-02-03T16:08:55;8.95;;;1.83;;
76127;SDS011;64873;50.102;14.434;2023-02-03T16:13:49;11.27;;;1.40;;
76127;SDS011;64873;50.102;14.434;2023-02-03T16:16:26;6.07;;;2.08;;
76127;SDS011;64873;50.102;14.434;2023-02-03T16:19:09;5.68;;;1.85;;
76127;SDS011;64873;50.102;14.434;2023-02-03T16:27:27;6.47;;;1.65;;
76127;SDS011;64873;50.102;14.434;2023-02-03T16:35:55;8.38;;;1.08;;
76127;SDS011;64873;50.102;14.434;2023-02-03T16:38:46;4.28;;;1.38;;
76127;SDS011;64873;50.102;14.434;2023-02-03T16:41:31;4.75;;;1.33;;
76127;SDS011;64873;50.102;14.434;2023-02-03T16:44:16;2.72;;;0.80;;
76127;SDS011;64873;50.102;14.434;2023-02-03T16:47:00;6.50;;;0.90;;
76127;SDS011;64873;50.102;14.434;2023-02-03T16:49:46;2.83;;;0.88;;
76127;SDS011;64873;50.102;14.434;2023-02-03T16:52:30;3.22;;;1.20;;
76127;SDS011;64873;50.102;14.434;2023-02-03T16:54:55;3.65;;;1.20;;
76127;SDS011;64873;50.102;14.434;2023-02-03T16:57:22;5.32;;;1.05;;
76127;SDS011;64873;50.102;14.434;2023-02-03T16:59:47;6.07;;;1.73;;
76127;SDS011;64873;50.102;14.434;2023-02-03T17:02:13;6.45;;;1.65;;
76127;SDS011;64873;50.102;14.434;2023-02-03T17:04:38;6.00;;;1.27;;
76127;SDS011;64873;50.102;14.434;2023-02-03T17:07:04;6.03;;;1.50;;
76127;SDS011;64873;50.102;14.434;2023-02-03T17:09:29;3.70;;;1.05;;
76127;SDS011;64873;50.102;14.434;2023-02-03T17:11:59;6.85;;;1.58;;
76127;SDS011;64873;50.102;14.434;2023-02-03T17:14:25;4.18;;;1.33;;
76127;SDS011;64873;50.102;14.434;2023-02-03T17:16:51;7.25;;;1.63;;
76127;SDS011;64873;50.102;14.434;2023-02-03T17:19:16;11.20;;;1.60;;
76127;SDS011;64873;50.102;14.434;2023-02-03T17:21:42;7.32;;;2.03;;
76127;SDS011;64873;50.102;14.434;2023-02-03T17:24:07;5.95;;;1.35;;
76127;SDS011;64873;50.102;14.434;2023-02-03T17:26:33;12.35;;;2.63;;
76127;SDS011;64873;50.102;14.434;2023-02-03T17:28:59;5.53;;;1.90;;
76127;SDS011;64873;50.102;14.434;2023-02-03T17:31:27;6.18;;;1.55;;
76127;SDS011;64873;50.102;14.434;2023-02-03T17:33:53;10.90;;;2.50;;
76127;SDS011;64873;50.102;14.434;2023-02-03T17:36:19;11.82;;;1.98;;
76127;SDS011;64873;50.102;14.434;2023-02-03T17:38:52;10.32;;;2.28;;
76127;SDS011;64873;50.102;14.434;2023-02-03T17:41:21;7.68;;;1.75;;
76127;SDS011;64873;50.102;14.434;2023-02-03T17:43:50;7.55;;;2.17;;
76127;SDS011;64873;50.102;14.434;2023-02-03T17:46:23;13.02;;;2.45;;
76127;SDS011;64873;50.102;14.434;2023-02-03T17:48:49;13.13;;;3.00;;
76127;SDS011;64873;50.102;14.434;2023-02-03T17:51:16;16.13;;;3.08;;
76127;SDS011;64873;50.102;14.434;2023-02-03T17:53:44;14.65;;;2.80;;